sensor_id;sensor_type;location;lat;lon;timestamp;temperature;humidity
19665;DHT22;9980;51.020;7.772;2023-06-19T00:02:09;23.70;84.30
19665;DHT22;9980;51.020;7.772;2023-06-19T00:04:36;23.70;84.00
19665;DHT22;9980;51.020;7.772;2023-06-19T00:07:03;23.70;85.00
19665;DHT22;9980;51.020;7.772;2023-06-19T00:09:32;23.70;84.50
19665;DHT22;9980;51.020;7.772;2023-06-19T00:11:59;23.70;84.70
19665;DHT22;9980;51.020;7.772;2023-06-19T00:14:27;23.60;84.50
19665;DHT22;9980;51.020;7.772;2023-06-19T00:16:54;23.60;84.20
19665;DHT22;9980;51.020;7.772;2023-06-19T00:19:22;23.50;84.30
19665;DHT22;9980;51.020;7.772;2023-06-19T00:21:49;23.50;84.30
19665;DHT22;9980;51.020;7.772;2023-06-19T00:24:16;23.50;84.30
19665;DHT22;9980;51.020;7.772;2023-06-19T00:26:43;23.40;84.10
19665;DHT22;9980;51.020;7.772;2023-06-19T00:29:10;23.40;84.20
19665;DHT22;9980;51.020;7.772;2023-06-19T00:31:37;23.30;84.10
19665;DHT22;9980;51.020;7.772;2023-06-19T00:34:04;23.30;84.30
19665;DHT22;9980;51.020;7.772;2023-06-19T00:36:31;23.20;84.30
19665;DHT22;9980;51.020;7.772;2023-06-19T00:38:58;23.20;84.10
19665;DHT22;9980;51.020;7.772;2023-06-19T00:41:27;23.10;84.00
19665;DHT22;9980;51.020;7.772;2023-06-19T00:43:54;23.00;84.20
19665;DHT22;9980;51.020;7.772;2023-06-19T00:46:23;23.00;84.30
19665;DHT22;9980;51.020;7.772;2023-06-19T00:48:50;22.90;84.20
19665;DHT22;9980;51.020;7.772;2023-06-19T00:51:17;22.90;84.20
19665;DHT22;9980;51.020;7.772;2023-06-19T00:53:45;22.80;84.30
19665;DHT22;9980;51.020;7.772;2023-06-19T00:56:11;22.80;84.40
19665;DHT22;9980;51.020;7.772;2023-06-19T00:58:39;22.70;84.30
19665;DHT22;9980;51.020;7.772;2023-06-19T01:01:06;22.60;84.30
19665;DHT22;9980;51.020;7.772;2023-06-19T01:03:36;22.60;84.40
19665;DHT22;9980;51.020;7.772;2023-06-19T01:06:12;22.50;84.60
19665;DHT22;9980;51.020;7.772;2023-06-19T01:08:52;22.50;85.00
19665;DHT22;9980;51.020;7.772;2023-06-19T01:11:39;22.40;85.00
19665;DHT22;9980;51.020;7.772;2023-06-19T01:14:18;22.40;85.00
19665;DHT22;9980;51.020;7.772;2023-06-19T01:16:52;22.30;85.00
19665;DHT22;9980;51.020;7.772;2023-06-19T01:19:20;22.30;85.30
19665;DHT22;9980;51.020;7.772;2023-06-19T01:21:49;22.20;85.50
19665;DHT22;9980;51.020;7.772;2023-06-19T01:24:17;22.10;85.90
19665;DHT22;9980;51.020;7.772;2023-06-19T01:26:44;22.10;85.90
19665;DHT22;9980;51.020;7.772;2023-06-19T01:29:14;22.10;86.30
19665;DHT22;9980;51.020;7.772;2023-06-19T01:31:55;22.00;86.60
19665;DHT22;9980;51.020;7.772;2023-06-19T01:34:31;22.00;87.20
19665;DHT22;9980;51.020;7.772;2023-06-19T01:37:00;22.00;86.70
19665;DHT22;9980;51.020;7.772;2023-06-19T01:39:28;22.00;87.00
19665;DHT22;9980;51.020;7.772;2023-06-19T01:41:56;21.90;86.90
19665;DHT22;9980;51.020;7.772;2023-06-19T01:44:24;21.90;87.80
19665;DHT22;9980;51.020;7.772;2023-06-19T01:46:52;21.90;87.40
19665;DHT22;9980;51.020;7.772;2023-06-19T01:49:19;21.80;87.30
19665;DHT22;9980;51.020;7.772;2023-06-19T01:51:47;21.80;87.50
19665;DHT22;9980;51.020;7.772;2023-06-19T01:54:13;21.80;87.60
19665;DHT22;9980;51.020;7.772;2023-06-19T01:56:40;21.80;87.50
19665;DHT22;9980;51.020;7.772;2023-06-19T01:59:08;21.80;87.60
19665;DHT22;9980;51.020;7.772;2023-06-19T02:01:35;21.80;88.00
19665;DHT22;9980;51.020;7.772;2023-06-19T02:04:02;21.80;88.00
19665;DHT22;9980;51.020;7.772;2023-06-19T02:06:30;21.80;88.20
19665;DHT22;9980;51.020;7.772;2023-06-19T02:08:57;21.80;88.80
19665;DHT22;9980;51.020;7.772;2023-06-19T02:11:24;21.70;88.50
19665;DHT22;9980;51.020;7.772;2023-06-19T02:13:53;21.80;89.10
19665;DHT22;9980;51.020;7.772;2023-06-19T02:16:20;21.80;89.20
19665;DHT22;9980;51.020;7.772;2023-06-19T02:18:48;21.80;89.30
19665;DHT22;9980;51.020;7.772;2023-06-19T02:21:15;21.70;89.30
19665;DHT22;9980;51.020;7.772;2023-06-19T02:23:42;21.80;89.50
19665;DHT22;9980;51.020;7.772;2023-06-19T02:26:09;21.70;89.50
19665;DHT22;9980;51.020;7.772;2023-06-19T02:28:38;21.80;89.60
19665;DHT22;9980;51.020;7.772;2023-06-19T02:31:04;21.80;89.80
19665;DHT22;9980;51.020;7.772;2023-06-19T02:33:31;21.80;90.00
19665;DHT22;9980;51.020;7.772;2023-06-19T02:35:58;21.80;90.00
19665;DHT22;9980;51.020;7.772;2023-06-19T02:38:26;21.80;90.10
19665;DHT22;9980;51.020;7.772;2023-06-19T02:40:53;21.80;90.30
19665;DHT22;9980;51.020;7.772;2023-06-19T02:43:20;21.80;90.30
19665;DHT22;9980;51.020;7.772;2023-06-19T02:45:47;21.80;90.50
19665;DHT22;9980;51.020;7.772;2023-06-19T02:48:14;21.80;90.50
19665;DHT22;9980;51.020;7.772;2023-06-19T02:50:41;21.80;90.80
19665;DHT22;9980;51.020;7.772;2023-06-19T02:53:08;21.80;91.00
19665;DHT22;9980;51.020;7.772;2023-06-19T02:55:35;21.80;90.90
19665;DHT22;9980;51.020;7.772;2023-06-19T02:58:03;21.80;91.10
19665;DHT22;9980;51.020;7.772;2023-06-19T03:00:30;21.80;90.70
19665;DHT22;9980;51.020;7.772;2023-06-19T03:02:57;21.80;90.90
19665;DHT22;9980;51.020;7.772;2023-06-19T03:05:25;21.80;90.80
19665;DHT22;9980;51.020;7.772;2023-06-19T03:07:55;21.80;90.70
19665;DHT22;9980;51.020;7.772;2023-06-19T03:10:22;21.80;90.40
19665;DHT22;9980;51.020;7.772;2023-06-19T03:12:49;21.80;90.30
19665;DHT22;9980;51.020;7.772;2023-06-19T03:15:16;21.70;90.30
19665;DHT22;9980;51.020;7.772;2023-06-19T03:17:47;21.70;90.10
19665;DHT22;9980;51.020;7.772;2023-06-19T03:20:14;21.70;90.10
19665;DHT22;9980;51.020;7.772;2023-06-19T03:22:49;21.70;90.00
19665;DHT22;9980;51.020;7.772;2023-06-19T03:25:16;21.70;89.80
19665;DHT22;9980;51.020;7.772;2023-06-19T03:27:47;21.60;89.80
19665;DHT22;9980;51.020;7.772;2023-06-19T03:30:14;21.60;89.70
19665;DHT22;9980;51.020;7.772;2023-06-19T03:32:41;21.60;89.80
19665;DHT22;9980;51.020;7.772;2023-06-19T03:35:16;21.50;89.60
19665;DHT22;9980;51.020;7.772;2023-06-19T03:37:43;21.50;89.10
19665;DHT22;9980;51.020;7.772;2023-06-19T03:40:11;21.50;89.30
19665;DHT22;9980;51.020;7.772;2023-06-19T03:42:43;21.50;89.20
19665;DHT22;9980;51.020;7.772;2023-06-19T03:45:12;21.50;89.30
19665;DHT22;9980;51.020;7.772;2023-06-19T03:47:39;21.50;89.20
19665;DHT22;9980;51.020;7.772;2023-06-19T03:50:06;21.50;89.40
19665;DHT22;9980;51.020;7.772;2023-06-19T03:52:47;21.50;89.80
19665;DHT22;9980;51.020;7.772;2023-06-19T03:55:14;21.50;89.50
19665;DHT22;9980;51.020;7.772;2023-06-19T03:57:41;21.50;90.00
19665;DHT22;9980;51.020;7.772;2023-06-19T04:00:08;21.60;89.90
19665;DHT22;9980;51.020;7.772;2023-06-19T04:02:38;21.60;89.80
19665;DHT22;9980;51.020;7.772;2023-06-19T04:05:06;21.60;90.00
19665;DHT22;9980;51.020;7.772;2023-06-19T04:07:34;21.60;90.10
19665;DHT22;9980;51.020;7.772;2023-06-19T04:10:00;21.60;90.10
19665;DHT22;9980;51.020;7.772;2023-06-19T04:12:27;21.70;90.10
19665;DHT22;9980;51.020;7.772;2023-06-19T04:14:54;21.70;90.00
19665;DHT22;9980;51.020;7.772;2023-06-19T04:17:21;21.70;90.00
19665;DHT22;9980;51.020;7.772;2023-06-19T04:19:48;21.70;90.10
19665;DHT22;9980;51.020;7.772;2023-06-19T04:22:15;21.70;90.20
19665;DHT22;9980;51.020;7.772;2023-06-19T04:24:42;21.80;90.20
19665;DHT22;9980;51.020;7.772;2023-06-19T04:27:10;21.80;90.20
19665;DHT22;9980;51.020;7.772;2023-06-19T04:29:37;21.80;90.20
19665;DHT22;9980;51.020;7.772;2023-06-19T04:32:04;21.90;90.30
19665;DHT22;9980;51.020;7.772;2023-06-19T04:34:41;21.90;90.20
19665;DHT22;9980;51.020;7.772;2023-06-19T04:37:12;22.00;90.30
19665;DHT22;9980;51.020;7.772;2023-06-19T04:39:39;22.00;90.30
19665;DHT22;9980;51.020;7.772;2023-06-19T04:42:06;22.10;90.40
19665;DHT22;9980;51.020;7.772;2023-06-19T04:44:33;22.10;90.50
19665;DHT22;9980;51.020;7.772;2023-06-19T04:47:00;22.20;90.70
19665;DHT22;9980;51.020;7.772;2023-06-19T04:49:28;22.30;90.70
19665;DHT22;9980;51.020;7.772;2023-06-19T04:51:57;22.50;90.80
19665;DHT22;9980;51.020;7.772;2023-06-19T04:54:25;22.60;90.70
19665;DHT22;9980;51.020;7.772;2023-06-19T04:56:52;22.70;90.60
19665;DHT22;9980;51.020;7.772;2023-06-19T04:59:21;22.80;90.40
19665;DHT22;9980;51.020;7.772;2023-06-19T05:01:48;22.90;90.30
19665;DHT22;9980;51.020;7.772;2023-06-19T05:04:15;23.00;90.10
19665;DHT22;9980;51.020;7.772;2023-06-19T05:06:42;23.10;90.00
19665;DHT22;9980;51.020;7.772;2023-06-19T05:09:09;23.10;89.80
19665;DHT22;9980;51.020;7.772;2023-06-19T05:11:37;23.20;89.50
19665;DHT22;9980;51.020;7.772;2023-06-19T05:14:04;23.20;89.50
19665;DHT22;9980;51.020;7.772;2023-06-19T05:16:31;23.20;89.50
19665;DHT22;9980;51.020;7.772;2023-06-19T05:19:02;23.30;89.30
19665;DHT22;9980;51.020;7.772;2023-06-19T05:21:29;23.30;89.50
19665;DHT22;9980;51.020;7.772;2023-06-19T05:23:56;23.30;89.40
19665;DHT22;9980;51.020;7.772;2023-06-19T05:26:23;23.40;89.90
19665;DHT22;9980;51.020;7.772;2023-06-19T05:28:50;23.40;89.80
19665;DHT22;9980;51.020;7.772;2023-06-19T05:31:17;23.50;89.50
19665;DHT22;9980;51.020;7.772;2023-06-19T05:33:44;23.50;89.60
19665;DHT22;9980;51.020;7.772;2023-06-19T05:36:11;23.50;89.40
19665;DHT22;9980;51.020;7.772;2023-06-19T05:38:39;23.60;89.50
19665;DHT22;9980;51.020;7.772;2023-06-19T05:41:06;23.60;89.00
19665;DHT22;9980;51.020;7.772;2023-06-19T05:43:33;23.60;89.10
19665;DHT22;9980;51.020;7.772;2023-06-19T05:46:00;23.60;89.30
19665;DHT22;9980;51.020;7.772;2023-06-19T05:48:29;23.60;89.50
19665;DHT22;9980;51.020;7.772;2023-06-19T05:50:56;23.70;89.00
19665;DHT22;9980;51.020;7.772;2023-06-19T05:53:23;23.70;89.00
19665;DHT22;9980;51.020;7.772;2023-06-19T05:55:50;23.70;89.00
19665;DHT22;9980;51.020;7.772;2023-06-19T05:58:17;23.70;89.10
19665;DHT22;9980;51.020;7.772;2023-06-19T06:00:47;23.70;89.00
19665;DHT22;9980;51.020;7.772;2023-06-19T06:03:15;23.70;88.90
19665;DHT22;9980;51.020;7.772;2023-06-19T06:05:42;23.70;89.30
19665;DHT22;9980;51.020;7.772;2023-06-19T06:08:09;23.80;89.30
19665;DHT22;9980;51.020;7.772;2023-06-19T06:10:36;23.80;90.00
19665;DHT22;9980;51.020;7.772;2023-06-19T06:13:04;23.80;89.80
19665;DHT22;9980;51.020;7.772;2023-06-19T06:15:31;23.80;89.50
19665;DHT22;9980;51.020;7.772;2023-06-19T06:17:58;23.90;89.60
19665;DHT22;9980;51.020;7.772;2023-06-19T06:20:26;23.90;90.00
19665;DHT22;9980;51.020;7.772;2023-06-19T06:22:53;24.00;90.00
19665;DHT22;9980;51.020;7.772;2023-06-19T06:25:21;24.00;90.10
19665;DHT22;9980;51.020;7.772;2023-06-19T06:27:48;24.10;90.10
19665;DHT22;9980;51.020;7.772;2023-06-19T06:30:15;24.20;90.40
19665;DHT22;9980;51.020;7.772;2023-06-19T06:32:45;24.20;90.30
19665;DHT22;9980;51.020;7.772;2023-06-19T06:35:13;24.30;90.10
19665;DHT22;9980;51.020;7.772;2023-06-19T06:37:40;24.40;89.60
19665;DHT22;9980;51.020;7.772;2023-06-19T06:40:08;24.40;88.90
19665;DHT22;9980;51.020;7.772;2023-06-19T06:42:36;24.40;88.50
19665;DHT22;9980;51.020;7.772;2023-06-19T06:45:05;24.40;87.80
19665;DHT22;9980;51.020;7.772;2023-06-19T06:47:34;24.50;88.30
19665;DHT22;9980;51.020;7.772;2023-06-19T06:50:02;24.50;89.30
19665;DHT22;9980;51.020;7.772;2023-06-19T06:52:29;24.50;89.10
19665;DHT22;9980;51.020;7.772;2023-06-19T06:54:57;24.60;89.20
19665;DHT22;9980;51.020;7.772;2023-06-19T06:57:24;24.70;89.80
19665;DHT22;9980;51.020;7.772;2023-06-19T06:59:51;24.80;89.60
19665;DHT22;9980;51.020;7.772;2023-06-19T07:02:18;24.80;89.30
19665;DHT22;9980;51.020;7.772;2023-06-19T07:04:45;25.00;88.60
19665;DHT22;9980;51.020;7.772;2023-06-19T07:07:13;25.10;88.90
19665;DHT22;9980;51.020;7.772;2023-06-19T07:09:40;25.20;87.70
19665;DHT22;9980;51.020;7.772;2023-06-19T07:12:07;25.30;87.70
19665;DHT22;9980;51.020;7.772;2023-06-19T07:14:34;25.40;88.00
19665;DHT22;9980;51.020;7.772;2023-06-19T07:17:01;25.40;88.30
19665;DHT22;9980;51.020;7.772;2023-06-19T07:19:28;25.60;88.20
19665;DHT22;9980;51.020;7.772;2023-06-19T07:21:56;25.70;87.00
19665;DHT22;9980;51.020;7.772;2023-06-19T07:24:23;25.80;87.10
19665;DHT22;9980;51.020;7.772;2023-06-19T07:26:50;25.90;86.30
19665;DHT22;9980;51.020;7.772;2023-06-19T07:29:17;26.00;85.70
19665;DHT22;9980;51.020;7.772;2023-06-19T07:31:44;26.00;85.00
19665;DHT22;9980;51.020;7.772;2023-06-19T07:34:11;26.10;84.30
19665;DHT22;9980;51.020;7.772;2023-06-19T07:36:38;26.10;83.90
19665;DHT22;9980;51.020;7.772;2023-06-19T07:39:05;26.10;83.60
19665;DHT22;9980;51.020;7.772;2023-06-19T07:41:32;26.10;83.70
19665;DHT22;9980;51.020;7.772;2023-06-19T07:43:59;26.10;84.30
19665;DHT22;9980;51.020;7.772;2023-06-19T07:46:26;26.10;84.00
19665;DHT22;9980;51.020;7.772;2023-06-19T07:48:53;26.10;84.00
19665;DHT22;9980;51.020;7.772;2023-06-19T07:51:20;26.10;84.50
19665;DHT22;9980;51.020;7.772;2023-06-19T07:53:47;26.20;83.60
19665;DHT22;9980;51.020;7.772;2023-06-19T07:56:14;26.20;83.40
19665;DHT22;9980;51.020;7.772;2023-06-19T07:58:41;26.20;83.00
19665;DHT22;9980;51.020;7.772;2023-06-19T08:01:08;26.30;82.90
19665;DHT22;9980;51.020;7.772;2023-06-19T08:03:37;26.30;82.90
19665;DHT22;9980;51.020;7.772;2023-06-19T08:06:04;26.30;82.60
19665;DHT22;9980;51.020;7.772;2023-06-19T08:08:31;26.30;83.00
19665;DHT22;9980;51.020;7.772;2023-06-19T08:10:58;26.30;83.20
19665;DHT22;9980;51.020;7.772;2023-06-19T08:13:25;26.30;82.50
19665;DHT22;9980;51.020;7.772;2023-06-19T08:15:52;26.20;83.40
19665;DHT22;9980;51.020;7.772;2023-06-19T08:18:19;26.30;82.90
19665;DHT22;9980;51.020;7.772;2023-06-19T08:20:46;26.40;82.40
19665;DHT22;9980;51.020;7.772;2023-06-19T08:23:13;26.40;82.50
19665;DHT22;9980;51.020;7.772;2023-06-19T08:25:40;26.40;81.70
19665;DHT22;9980;51.020;7.772;2023-06-19T08:28:06;26.40;81.80
19665;DHT22;9980;51.020;7.772;2023-06-19T08:30:35;26.50;81.10
19665;DHT22;9980;51.020;7.772;2023-06-19T08:33:01;26.50;81.00
19665;DHT22;9980;51.020;7.772;2023-06-19T08:35:28;26.60;81.20
19665;DHT22;9980;51.020;7.772;2023-06-19T08:37:55;26.60;81.30
19665;DHT22;9980;51.020;7.772;2023-06-19T08:40:22;26.70;82.80
19665;DHT22;9980;51.020;7.772;2023-06-19T08:42:50;26.80;82.80
19665;DHT22;9980;51.020;7.772;2023-06-19T08:45:18;26.80;82.90
19665;DHT22;9980;51.020;7.772;2023-06-19T08:47:48;26.90;82.00
19665;DHT22;9980;51.020;7.772;2023-06-19T08:50:19;27.10;80.40
19665;DHT22;9980;51.020;7.772;2023-06-19T08:52:45;27.10;80.10
19665;DHT22;9980;51.020;7.772;2023-06-19T08:55:12;27.20;79.70
19665;DHT22;9980;51.020;7.772;2023-06-19T08:57:39;27.30;78.70
19665;DHT22;9980;51.020;7.772;2023-06-19T09:00:08;27.40;79.00
19665;DHT22;9980;51.020;7.772;2023-06-19T09:02:41;27.40;79.00
19665;DHT22;9980;51.020;7.772;2023-06-19T09:05:14;27.50;77.80
19665;DHT22;9980;51.020;7.772;2023-06-19T09:07:44;27.50;77.70
19665;DHT22;9980;51.020;7.772;2023-06-19T09:10:20;27.70;78.30
19665;DHT22;9980;51.020;7.772;2023-06-19T09:13:02;27.70;78.00
19665;DHT22;9980;51.020;7.772;2023-06-19T09:15:37;27.80;78.60
19665;DHT22;9980;51.020;7.772;2023-06-19T09:18:10;28.00;77.20
19665;DHT22;9980;51.020;7.772;2023-06-19T09:20:41;28.10;77.10
19665;DHT22;9980;51.020;7.772;2023-06-19T09:23:12;28.30;77.50
19665;DHT22;9980;51.020;7.772;2023-06-19T09:25:45;28.40;77.70
19665;DHT22;9980;51.020;7.772;2023-06-19T09:30:55;28.90;77.40
19665;DHT22;9980;51.020;7.772;2023-06-19T09:33:28;29.00;76.20
19665;DHT22;9980;51.020;7.772;2023-06-19T09:35:58;29.20;74.70
19665;DHT22;9980;51.020;7.772;2023-06-19T09:38:27;29.20;74.30
19665;DHT22;9980;51.020;7.772;2023-06-19T09:40:57;29.30;73.10
19665;DHT22;9980;51.020;7.772;2023-06-19T09:43:42;29.50;74.80
19665;DHT22;9980;51.020;7.772;2023-06-19T09:46:14;29.50;71.30
19665;DHT22;9980;51.020;7.772;2023-06-19T09:48:44;29.60;72.40
19665;DHT22;9980;51.020;7.772;2023-06-19T09:51:30;29.80;72.60
19665;DHT22;9980;51.020;7.772;2023-06-19T09:53:59;29.80;71.80
19665;DHT22;9980;51.020;7.772;2023-06-19T09:56:29;29.90;69.60
19665;DHT22;9980;51.020;7.772;2023-06-19T09:58:58;30.00;70.10
19665;DHT22;9980;51.020;7.772;2023-06-19T10:01:31;29.90;69.00
19665;DHT22;9980;51.020;7.772;2023-06-19T10:04:07;29.90;69.20
19665;DHT22;9980;51.020;7.772;2023-06-19T10:06:45;29.90;69.20
19665;DHT22;9980;51.020;7.772;2023-06-19T10:09:15;29.90;69.50
19665;DHT22;9980;51.020;7.772;2023-06-19T10:11:50;29.90;68.20
19665;DHT22;9980;51.020;7.772;2023-06-19T10:14:21;29.80;68.30
19665;DHT22;9980;51.020;7.772;2023-06-19T10:16:50;29.80;68.10
19665;DHT22;9980;51.020;7.772;2023-06-19T10:19:20;29.80;68.60
19665;DHT22;9980;51.020;7.772;2023-06-19T10:21:50;29.80;68.40
19665;DHT22;9980;51.020;7.772;2023-06-19T10:24:20;29.80;68.30
19665;DHT22;9980;51.020;7.772;2023-06-19T10:26:59;29.80;69.80
19665;DHT22;9980;51.020;7.772;2023-06-19T10:29:51;29.80;69.50
19665;DHT22;9980;51.020;7.772;2023-06-19T10:32:39;29.80;68.20
19665;DHT22;9980;51.020;7.772;2023-06-19T10:35:11;29.90;70.20
19665;DHT22;9980;51.020;7.772;2023-06-19T10:37:39;29.90;68.50
19665;DHT22;9980;51.020;7.772;2023-06-19T10:40:07;30.00;68.70
19665;DHT22;9980;51.020;7.772;2023-06-19T10:42:40;30.00;68.80
19665;DHT22;9980;51.020;7.772;2023-06-19T10:45:10;30.10;69.50
19665;DHT22;9980;51.020;7.772;2023-06-19T10:47:40;30.20;69.70
19665;DHT22;9980;51.020;7.772;2023-06-19T10:50:14;30.30;68.50
19665;DHT22;9980;51.020;7.772;2023-06-19T10:52:43;30.40;67.80
19665;DHT22;9980;51.020;7.772;2023-06-19T10:55:12;30.50;66.30
19665;DHT22;9980;51.020;7.772;2023-06-19T10:57:45;30.70;66.00
19665;DHT22;9980;51.020;7.772;2023-06-19T11:00:28;30.80;66.30
19665;DHT22;9980;51.020;7.772;2023-06-19T11:02:57;31.00;63.80
19665;DHT22;9980;51.020;7.772;2023-06-19T11:05:26;31.10;64.70
19665;DHT22;9980;51.020;7.772;2023-06-19T11:07:58;31.20;64.60
19665;DHT22;9980;51.020;7.772;2023-06-19T11:10:30;31.40;63.60
19665;DHT22;9980;51.020;7.772;2023-06-19T11:12:58;31.50;63.00
19665;DHT22;9980;51.020;7.772;2023-06-19T11:15:30;31.60;62.70
19665;DHT22;9980;51.020;7.772;2023-06-19T11:18:02;31.80;63.40
19665;DHT22;9980;51.020;7.772;2023-06-19T11:20:29;31.90;62.90
19665;DHT22;9980;51.020;7.772;2023-06-19T11:23:01;32.00;63.60
19665;DHT22;9980;51.020;7.772;2023-06-19T11:25:37;32.20;62.10
19665;DHT22;9980;51.020;7.772;2023-06-19T11:28:13;32.30;60.70
19665;DHT22;9980;51.020;7.772;2023-06-19T11:30:41;32.50;61.00
19665;DHT22;9980;51.020;7.772;2023-06-19T11:33:17;32.60;61.40
19665;DHT22;9980;51.020;7.772;2023-06-19T11:35:54;32.70;59.70
19665;DHT22;9980;51.020;7.772;2023-06-19T11:38:26;32.80;61.10
19665;DHT22;9980;51.020;7.772;2023-06-19T11:40:57;32.90;60.20
19665;DHT22;9980;51.020;7.772;2023-06-19T11:43:31;33.00;59.10
19665;DHT22;9980;51.020;7.772;2023-06-19T11:46:06;33.00;59.00
19665;DHT22;9980;51.020;7.772;2023-06-19T11:48:37;33.10;58.50
19665;DHT22;9980;51.020;7.772;2023-06-19T11:51:05;33.20;57.90
19665;DHT22;9980;51.020;7.772;2023-06-19T11:53:34;33.20;57.20
19665;DHT22;9980;51.020;7.772;2023-06-19T11:56:00;33.20;57.90
19665;DHT22;9980;51.020;7.772;2023-06-19T11:58:28;33.20;57.00
19665;DHT22;9980;51.020;7.772;2023-06-19T12:00:55;33.30;55.70
19665;DHT22;9980;51.020;7.772;2023-06-19T12:03:23;33.30;55.60
19665;DHT22;9980;51.020;7.772;2023-06-19T12:05:50;33.30;55.60
19665;DHT22;9980;51.020;7.772;2023-06-19T12:08:17;33.20;55.10
19665;DHT22;9980;51.020;7.772;2023-06-19T12:10:44;33.20;54.60
19665;DHT22;9980;51.020;7.772;2023-06-19T12:13:11;33.10;54.10
19665;DHT22;9980;51.020;7.772;2023-06-19T12:15:38;33.00;54.30
19665;DHT22;9980;51.020;7.772;2023-06-19T12:18:05;32.90;54.80
19665;DHT22;9980;51.020;7.772;2023-06-19T12:20:33;32.80;56.00
19665;DHT22;9980;51.020;7.772;2023-06-19T12:23:00;32.80;55.70
19665;DHT22;9980;51.020;7.772;2023-06-19T12:25:27;32.80;55.70
19665;DHT22;9980;51.020;7.772;2023-06-19T12:27:54;32.80;54.70
19665;DHT22;9980;51.020;7.772;2023-06-19T12:30:21;32.80;56.40
19665;DHT22;9980;51.020;7.772;2023-06-19T12:32:49;32.90;58.20
19665;DHT22;9980;51.020;7.772;2023-06-19T12:35:17;32.90;56.80
19665;DHT22;9980;51.020;7.772;2023-06-19T12:37:44;32.90;55.20
19665;DHT22;9980;51.020;7.772;2023-06-19T12:40:12;33.00;55.20
19665;DHT22;9980;51.020;7.772;2023-06-19T12:42:39;33.00;54.80
19665;DHT22;9980;51.020;7.772;2023-06-19T12:45:06;33.00;53.70
19665;DHT22;9980;51.020;7.772;2023-06-19T12:47:33;33.00;53.00
19665;DHT22;9980;51.020;7.772;2023-06-19T12:50:00;33.00;53.50
19665;DHT22;9980;51.020;7.772;2023-06-19T12:52:27;33.10;53.60
19665;DHT22;9980;51.020;7.772;2023-06-19T12:54:54;33.10;54.50
19665;DHT22;9980;51.020;7.772;2023-06-19T12:57:21;33.10;53.30
19665;DHT22;9980;51.020;7.772;2023-06-19T12:59:48;33.10;52.70
19665;DHT22;9980;51.020;7.772;2023-06-19T13:02:15;33.10;53.10
19665;DHT22;9980;51.020;7.772;2023-06-19T13:04:42;33.10;54.50
19665;DHT22;9980;51.020;7.772;2023-06-19T13:07:09;33.00;53.20
19665;DHT22;9980;51.020;7.772;2023-06-19T13:09:36;33.10;53.70
19665;DHT22;9980;51.020;7.772;2023-06-19T13:12:03;33.00;54.50
19665;DHT22;9980;51.020;7.772;2023-06-19T13:14:30;33.10;54.60
19665;DHT22;9980;51.020;7.772;2023-06-19T13:16:58;33.10;54.90
19665;DHT22;9980;51.020;7.772;2023-06-19T13:19:26;33.20;54.30
19665;DHT22;9980;51.020;7.772;2023-06-19T13:21:53;33.20;54.20
19665;DHT22;9980;51.020;7.772;2023-06-19T13:24:20;33.30;54.30
19665;DHT22;9980;51.020;7.772;2023-06-19T13:26:48;33.30;53.70
19665;DHT22;9980;51.020;7.772;2023-06-19T13:29:15;33.40;52.90
19665;DHT22;9980;51.020;7.772;2023-06-19T13:31:42;33.50;52.30
19665;DHT22;9980;51.020;7.772;2023-06-19T13:34:09;33.50;52.80
19665;DHT22;9980;51.020;7.772;2023-06-19T13:36:36;33.50;51.30
19665;DHT22;9980;51.020;7.772;2023-06-19T13:39:03;33.50;51.40
19665;DHT22;9980;51.020;7.772;2023-06-19T13:41:31;33.60;52.60
19665;DHT22;9980;51.020;7.772;2023-06-19T13:44:00;33.60;52.10
19665;DHT22;9980;51.020;7.772;2023-06-19T13:46:27;33.60;51.80
19665;DHT22;9980;51.020;7.772;2023-06-19T13:48:54;33.70;52.10
19665;DHT22;9980;51.020;7.772;2023-06-19T13:51:22;33.70;52.00
19665;DHT22;9980;51.020;7.772;2023-06-19T13:53:50;33.80;52.30
19665;DHT22;9980;51.020;7.772;2023-06-19T13:56:18;33.80;51.50
19665;DHT22;9980;51.020;7.772;2023-06-19T13:58:46;33.80;51.00
19665;DHT22;9980;51.020;7.772;2023-06-19T14:01:13;33.80;50.70
19665;DHT22;9980;51.020;7.772;2023-06-19T14:03:40;33.80;50.20
19665;DHT22;9980;51.020;7.772;2023-06-19T14:06:07;33.80;49.70
19665;DHT22;9980;51.020;7.772;2023-06-19T14:08:34;33.70;49.90
19665;DHT22;9980;51.020;7.772;2023-06-19T14:11:02;33.60;49.50
19665;DHT22;9980;51.020;7.772;2023-06-19T14:13:29;33.60;50.40
19665;DHT22;9980;51.020;7.772;2023-06-19T14:15:56;33.60;50.10
19665;DHT22;9980;51.020;7.772;2023-06-19T14:18:23;33.60;50.90
19665;DHT22;9980;51.020;7.772;2023-06-19T14:20:50;33.60;50.80
19665;DHT22;9980;51.020;7.772;2023-06-19T14:23:17;33.70;50.40
19665;DHT22;9980;51.020;7.772;2023-06-19T14:25:44;33.80;50.60
19665;DHT22;9980;51.020;7.772;2023-06-19T14:28:11;33.80;50.60
19665;DHT22;9980;51.020;7.772;2023-06-19T14:30:38;33.80;49.40
19665;DHT22;9980;51.020;7.772;2023-06-19T14:33:05;33.90;49.20
19665;DHT22;9980;51.020;7.772;2023-06-19T14:35:33;33.90;48.50
19665;DHT22;9980;51.020;7.772;2023-06-19T14:38:00;33.90;49.90
19665;DHT22;9980;51.020;7.772;2023-06-19T14:40:27;34.00;50.20
19665;DHT22;9980;51.020;7.772;2023-06-19T14:42:54;34.00;50.10
19665;DHT22;9980;51.020;7.772;2023-06-19T14:45:21;34.00;49.10
19665;DHT22;9980;51.020;7.772;2023-06-19T14:47:48;34.10;50.00
19665;DHT22;9980;51.020;7.772;2023-06-19T14:50:16;34.10;51.00
19665;DHT22;9980;51.020;7.772;2023-06-19T14:52:42;34.10;50.00
19665;DHT22;9980;51.020;7.772;2023-06-19T14:55:10;34.20;49.10
19665;DHT22;9980;51.020;7.772;2023-06-19T14:57:37;34.20;49.40
19665;DHT22;9980;51.020;7.772;2023-06-19T15:00:05;34.30;48.80
19665;DHT22;9980;51.020;7.772;2023-06-19T15:02:32;34.30;50.10
19665;DHT22;9980;51.020;7.772;2023-06-19T15:05:04;34.30;50.10
19665;DHT22;9980;51.020;7.772;2023-06-19T15:07:33;34.30;49.30
19665;DHT22;9980;51.020;7.772;2023-06-19T15:10:00;34.30;49.40
19665;DHT22;9980;51.020;7.772;2023-06-19T15:12:27;34.30;49.70
19665;DHT22;9980;51.020;7.772;2023-06-19T15:14:55;34.30;50.00
19665;DHT22;9980;51.020;7.772;2023-06-19T15:17:22;34.30;49.60
19665;DHT22;9980;51.020;7.772;2023-06-19T15:19:49;34.30;49.60
19665;DHT22;9980;51.020;7.772;2023-06-19T15:22:16;34.30;48.80
19665;DHT22;9980;51.020;7.772;2023-06-19T15:24:42;34.30;49.40
19665;DHT22;9980;51.020;7.772;2023-06-19T15:27:10;34.40;50.40
19665;DHT22;9980;51.020;7.772;2023-06-19T15:29:38;34.40;49.20
19665;DHT22;9980;51.020;7.772;2023-06-19T15:32:05;34.50;48.50
19665;DHT22;9980;51.020;7.772;2023-06-19T15:34:32;34.50;47.20
19665;DHT22;9980;51.020;7.772;2023-06-19T15:36:59;34.50;47.60
19665;DHT22;9980;51.020;7.772;2023-06-19T15:39:26;34.50;48.60
19665;DHT22;9980;51.020;7.772;2023-06-19T15:41:53;34.50;48.10
19665;DHT22;9980;51.020;7.772;2023-06-19T15:44:20;34.50;48.10
19665;DHT22;9980;51.020;7.772;2023-06-19T15:46:47;34.50;47.50
19665;DHT22;9980;51.020;7.772;2023-06-19T15:49:14;34.50;46.80
19665;DHT22;9980;51.020;7.772;2023-06-19T15:51:42;34.50;48.00
19665;DHT22;9980;51.020;7.772;2023-06-19T15:54:09;34.50;46.60
19665;DHT22;9980;51.020;7.772;2023-06-19T15:56:38;34.50;46.20